createdAt,value
2019-05-07T00:02:04.112Z,8.20
2019-05-07T00:04:33.707Z,8.63
2019-05-07T00:07:03.802Z,8.25
2019-05-07T00:09:33.248Z,8.35
2019-05-07T00:12:05.052Z,8.55
2019-05-07T00:14:34.610Z,8.25
2019-05-07T00:17:04.733Z,8.45
2019-05-07T00:19:34.417Z,8.53
2019-05-07T00:22:04.177Z,8.78
2019-05-07T00:24:33.776Z,8.58
2019-05-07T00:27:03.326Z,8.48
2019-05-07T00:29:32.907Z,8.13
2019-05-07T00:32:03.054Z,8.68
2019-05-07T00:34:34.328Z,8.25
2019-05-07T00:37:08.094Z,7.83
2019-05-07T00:39:39.167Z,8.10
2019-05-07T00:42:12.576Z,7.97
2019-05-07T00:44:55.120Z,8.43
2019-05-07T00:47:24.976Z,8.10
2019-05-07T00:49:56.146Z,7.87
2019-05-07T00:52:26.753Z,8.35
2019-05-07T00:54:56.559Z,7.77
2019-05-07T00:57:26.170Z,8.37
2019-05-07T00:59:55.848Z,7.85
2019-05-07T01:02:25.604Z,7.80
2019-05-07T01:04:55.090Z,7.43
2019-05-07T01:07:24.656Z,7.62
2019-05-07T01:09:54.193Z,7.40
2019-05-07T01:12:23.732Z,7.62
2019-05-07T01:14:53.354Z,8.67
2019-05-07T01:17:22.983Z,7.83
2019-05-07T01:19:53.307Z,7.60
2019-05-07T01:22:23.075Z,8.35
2019-05-07T01:24:53.477Z,8.20
2019-05-07T01:27:23.312Z,8.53
2019-05-07T01:29:52.946Z,8.28
2019-05-07T01:32:36.477Z,8.10
2019-05-07T01:35:14.109Z,8.70
2019-05-07T01:37:43.711Z,8.75
2019-05-07T01:40:13.283Z,7.87
2019-05-07T01:42:42.965Z,8.05
2019-05-07T01:45:14.804Z,8.10
2019-05-07T01:47:44.503Z,8.70
2019-05-07T01:50:14.065Z,8.13
2019-05-07T01:52:43.881Z,7.85
2019-05-07T01:55:13.429Z,8.47
2019-05-07T01:57:49.695Z,8.60
2019-05-07T02:00:19.003Z,8.58
2019-05-07T02:02:56.216Z,8.80
2019-05-07T02:05:27.759Z,7.15
2019-05-07T02:07:58.787Z,9.33
2019-05-07T02:10:35.417Z,8.45
2019-05-07T02:13:05.370Z,8.25
2019-05-07T02:15:34.922Z,8.18
2019-05-07T02:18:04.510Z,9.88
2019-05-07T02:20:34.078Z,8.88
2019-05-07T02:23:04.000Z,8.47
2019-05-07T02:25:33.805Z,8.70
2019-05-07T02:28:03.197Z,8.70
2019-05-07T02:30:34.950Z,8.90
2019-05-07T02:33:04.211Z,8.17
2019-05-07T02:35:33.950Z,8.73
2019-05-07T02:38:05.305Z,9.20
2019-05-07T02:40:39.137Z,7.67
2019-05-07T02:43:08.753Z,8.60
2019-05-07T02:45:48.783Z,9.63
2019-05-07T02:48:23.523Z,8.53
2019-05-07T02:51:04.171Z,9.67
2019-05-07T02:53:37.808Z,8.13
2019-05-07T02:56:07.899Z,9.33
2019-05-07T02:58:37.462Z,9.80
2019-05-07T03:01:06.976Z,9.35
2019-05-07T03:03:36.593Z,8.60
2019-05-07T03:06:06.128Z,9.48
2019-05-07T03:08:35.856Z,9.43
2019-05-07T03:11:05.407Z,8.87
2019-05-07T03:13:35.026Z,9.80
2019-05-07T03:16:04.808Z,10.00
2019-05-07T03:18:34.413Z,9.15
2019-05-07T03:21:17.559Z,9.83
2019-05-07T03:23:53.779Z,9.23
2019-05-07T03:26:26.710Z,8.95
2019-05-07T03:29:03.663Z,9.57
2019-05-07T03:31:36.904Z,10.30
2019-05-07T03:34:08.043Z,9.37
2019-05-07T03:36:39.237Z,9.48
2019-05-07T03:39:08.906Z,9.55
2019-05-07T03:41:38.739Z,9.95
2019-05-07T03:44:13.305Z,9.27
2019-05-07T03:46:56.766Z,8.20
2019-05-07T03:49:34.493Z,9.20
2019-05-07T03:52:04.632Z,9.70
2019-05-07T03:54:34.453Z,9.07
2019-05-07T03:57:10.880Z,9.40
2019-05-07T03:59:35.369Z,8.03
2019-05-07T04:02:05.033Z,9.23
2019-05-07T04:04:34.931Z,8.50
2019-05-07T04:07:05.530Z,9.07
2019-05-07T04:09:35.111Z,8.77
2019-05-07T04:12:04.628Z,10.05
2019-05-07T04:14:34.757Z,8.78
2019-05-07T04:17:21.451Z,8.60
2019-05-07T04:19:37.830Z,8.15
2019-05-07T04:22:08.513Z,8.13
2019-05-07T04:24:53.223Z,8.68
2019-05-07T04:27:24.614Z,9.65
2019-05-07T04:29:54.202Z,8.65
2019-05-07T04:32:25.338Z,8.23
2019-05-07T04:34:59.373Z,8.53
2019-05-07T04:37:28.781Z,9.53
2019-05-07T04:39:58.157Z,9.75
2019-05-07T04:42:27.618Z,7.70
2019-05-07T04:44:57.212Z,8.43
2019-05-07T04:47:38.410Z,9.33
2019-05-07T04:49:57.963Z,8.90
2019-05-07T04:52:29.026Z,9.73
2019-05-07T04:54:58.425Z,8.80
2019-05-07T04:57:27.925Z,9.30
2019-05-07T04:59:57.749Z,7.97
2019-05-07T05:02:44.559Z,5.70
2019-05-07T05:05:14.520Z,7.97
2019-05-07T05:07:44.139Z,8.23
2019-05-07T05:10:14.061Z,8.30
2019-05-07T05:12:43.548Z,8.40
2019-05-07T05:15:12.932Z,8.75
2019-05-07T05:17:50.518Z,7.87
2019-05-07T05:20:13.996Z,8.18
2019-05-07T05:23:03.023Z,9.08
2019-05-07T05:25:36.777Z,7.28
2019-05-07T05:28:06.178Z,8.95
2019-05-07T05:30:46.133Z,7.70
2019-05-07T05:33:15.601Z,8.10
2019-05-07T05:35:45.162Z,8.60
2019-05-07T05:38:14.621Z,8.05
2019-05-07T05:40:44.077Z,7.75
2019-05-07T05:43:22.446Z,8.95
2019-05-07T05:45:53.759Z,7.72
2019-05-07T05:48:23.545Z,8.73
2019-05-07T05:50:57.679Z,8.45
2019-05-07T05:53:39.015Z,8.08
2019-05-07T05:56:26.519Z,7.58
2019-05-07T05:59:03.317Z,7.95
2019-05-07T06:01:37.497Z,6.05
2019-05-07T06:04:22.173Z,7.78
2019-05-07T06:07:10.617Z,7.15
2019-05-07T06:09:32.760Z,8.03
2019-05-07T06:12:07.019Z,8.20
2019-05-07T06:14:44.266Z,8.15
2019-05-07T06:17:15.284Z,7.92
2019-05-07T06:20:03.108Z,7.37
2019-05-07T06:22:38.147Z,6.85
2019-05-07T06:25:09.558Z,6.47
2019-05-07T06:27:39.285Z,6.58
2019-05-07T06:30:08.764Z,6.45
2019-05-07T06:32:38.246Z,6.03
2019-05-07T06:35:08.175Z,6.08
2019-05-07T06:37:37.635Z,6.03
2019-05-07T06:40:29.388Z,5.78
2019-05-07T06:43:03.221Z,6.03
2019-05-07T06:45:42.217Z,5.78
2019-05-07T06:48:12.654Z,5.75
2019-05-07T06:50:44.832Z,5.53
2019-05-07T06:53:14.453Z,5.45
2019-05-07T06:55:43.908Z,5.08
2019-05-07T06:58:13.310Z,5.20
2019-05-07T07:00:44.408Z,5.37
2019-05-07T07:03:32.761Z,5.05
2019-05-07T07:06:12.847Z,3.37
2019-05-07T07:08:46.476Z,4.35
2019-05-07T07:11:22.441Z,3.80
2019-05-07T07:13:52.030Z,4.22
2019-05-07T07:16:22.631Z,3.65
2019-05-07T07:18:55.343Z,4.78
2019-05-07T07:21:23.159Z,4.42
2019-05-07T07:23:52.541Z,4.12
2019-05-07T07:26:22.430Z,3.70
2019-05-07T07:28:52.545Z,4.15
2019-05-07T07:31:31.719Z,4.25
2019-05-07T07:34:02.379Z,4.25
2019-05-07T07:36:33.591Z,4.37
2019-05-07T07:39:06.123Z,4.72
2019-05-07T07:41:55.583Z,4.40
2019-05-07T07:44:25.045Z,4.70
2019-05-07T07:46:54.455Z,4.70
2019-05-07T07:49:23.790Z,4.40
2019-05-07T07:51:53.158Z,4.80
2019-05-07T07:54:22.816Z,5.00
2019-05-07T07:57:03.005Z,5.28
2019-05-07T07:59:52.867Z,5.22
2019-05-07T08:02:24.187Z,4.87
2019-05-07T08:04:53.632Z,5.62
2019-05-07T08:07:23.046Z,5.62
2019-05-07T08:09:53.489Z,6.30
2019-05-07T08:12:22.798Z,6.75
2019-05-07T08:14:53.251Z,6.10
2019-05-07T08:17:22.763Z,6.30
2019-05-07T08:19:52.236Z,6.28
2019-05-07T08:22:22.592Z,6.95
2019-05-07T08:24:52.284Z,6.90
2019-05-07T08:27:22.323Z,8.33
2019-05-07T08:29:52.462Z,7.53
2019-05-07T08:32:32.923Z,6.90
2019-05-07T08:35:22.296Z,7.30
2019-05-07T08:37:51.859Z,7.03
2019-05-07T08:40:22.073Z,7.25
2019-05-07T08:42:52.484Z,7.25
2019-05-07T08:45:39.846Z,7.08
2019-05-07T08:48:13.638Z,7.10
2019-05-07T08:50:42.927Z,7.55
2019-05-07T08:53:13.200Z,8.03
2019-05-07T08:55:42.768Z,8.00
2019-05-07T08:58:12.607Z,9.10
2019-05-07T09:00:42.007Z,6.85
2019-05-07T09:03:20.148Z,7.92
2019-05-07T09:05:42.613Z,7.28
2019-05-07T09:08:12.906Z,7.55
2019-05-07T09:10:42.453Z,7.60
2019-05-07T09:13:12.615Z,8.00
2019-05-07T09:15:42.589Z,8.65
2019-05-07T09:18:12.379Z,8.68
2019-05-07T09:20:43.255Z,9.35
2019-05-07T09:23:12.738Z,7.83
2019-05-07T09:25:46.935Z,7.30
2019-05-07T09:28:16.760Z,8.45
2019-05-07T09:30:52.480Z,9.70
2019-05-07T09:33:32.017Z,7.70
2019-05-07T09:36:02.217Z,7.33
2019-05-07T09:38:32.806Z,6.83
2019-05-07T09:41:02.842Z,8.13
2019-05-07T09:43:32.562Z,7.37
2019-05-07T09:46:02.632Z,6.47
2019-05-07T09:48:33.861Z,6.80
2019-05-07T09:51:03.640Z,6.42
2019-05-07T09:53:32.998Z,6.83
2019-05-07T09:56:02.387Z,6.67
2019-05-07T09:58:36.524Z,7.12
2019-05-07T10:01:03.161Z,6.40
2019-05-07T10:03:32.647Z,7.22
2019-05-07T10:06:03.537Z,7.47
2019-05-07T10:08:33.203Z,8.30
2019-05-07T10:11:04.188Z,6.50
2019-05-07T10:13:47.090Z,6.92
2019-05-07T10:16:18.461Z,6.55
2019-05-07T10:18:47.836Z,8.53
2019-05-07T10:21:17.678Z,7.53
2019-05-07T10:23:47.490Z,6.92
2019-05-07T10:26:17.283Z,7.00
2019-05-07T10:28:46.693Z,7.08
2019-05-07T10:31:16.448Z,8.10
2019-05-07T10:33:45.925Z,7.20
2019-05-07T10:36:15.626Z,7.42
2019-05-07T10:38:45.107Z,7.55
2019-05-07T10:41:14.621Z,7.95
2019-05-07T10:43:43.992Z,7.60
2019-05-07T10:46:14.975Z,8.28
2019-05-07T10:48:48.512Z,7.78
2019-05-07T10:51:18.654Z,7.65
2019-05-07T10:53:48.035Z,7.62
2019-05-07T10:56:17.763Z,7.67
2019-05-07T10:58:47.259Z,7.17
2019-05-07T11:01:18.582Z,7.17
2019-05-07T11:03:48.212Z,7.42
2019-05-07T11:06:17.661Z,8.98
2019-05-07T11:08:47.143Z,9.05
2019-05-07T11:11:16.558Z,9.20
2019-05-07T11:13:46.230Z,8.55
2019-05-07T11:16:17.401Z,8.50
2019-05-07T11:18:48.585Z,9.55
2019-05-07T11:21:19.596Z,9.20
2019-05-07T11:23:49.008Z,8.85
2019-05-07T11:26:18.863Z,7.47
2019-05-07T11:28:48.256Z,8.20
2019-05-07T11:31:17.792Z,8.05
2019-05-07T11:33:47.718Z,9.38
2019-05-07T11:36:17.016Z,8.70
2019-05-07T11:38:46.380Z,9.50
2019-05-07T11:41:16.384Z,9.33
2019-05-07T11:43:55.982Z,9.40
2019-05-07T11:46:27.050Z,8.98
2019-05-07T11:48:58.553Z,9.40
2019-05-07T11:51:33.419Z,8.05
2019-05-07T11:54:16.274Z,9.35
2019-05-07T11:56:45.834Z,9.43
2019-05-07T11:59:15.444Z,8.95
2019-05-07T12:01:47.712Z,7.75
2019-05-07T12:04:17.489Z,7.58
2019-05-07T12:06:47.049Z,7.22
2019-05-07T12:09:16.626Z,6.55
2019-05-07T12:11:46.155Z,6.28
2019-05-07T12:14:27.964Z,7.42
2019-05-07T12:16:46.629Z,7.03
2019-05-07T12:19:16.622Z,7.87
2019-05-07T12:21:46.403Z,8.20
2019-05-07T12:24:16.526Z,8.05
2019-05-07T12:26:47.277Z,8.85
2019-05-07T12:29:16.707Z,8.25
2019-05-07T12:31:55.627Z,8.53
2019-05-07T12:34:26.391Z,9.30
2019-05-07T12:36:55.883Z,9.50
2019-05-07T12:39:25.680Z,9.78
2019-05-07T12:41:55.235Z,9.45
2019-05-07T12:44:25.117Z,9.68
2019-05-07T12:46:54.428Z,9.55
2019-05-07T12:49:24.103Z,9.15
2019-05-07T12:51:55.108Z,8.98
2019-05-07T12:54:36.689Z,9.78
2019-05-07T12:57:06.184Z,10.08
2019-05-07T12:59:35.667Z,9.28
2019-05-07T13:02:26.798Z,8.40
2019-05-07T13:04:44.062Z,8.65
2019-05-07T13:07:15.107Z,7.87
2019-05-07T13:09:44.510Z,8.55
2019-05-07T13:12:13.983Z,9.50
2019-05-07T13:14:43.448Z,10.23
2019-05-07T13:17:12.926Z,9.33
2019-05-07T13:19:42.439Z,9.13
2019-05-07T13:22:13.020Z,8.73
2019-05-07T13:24:42.780Z,9.60
2019-05-07T13:27:12.131Z,7.87
2019-05-07T13:29:42.498Z,8.43
2019-05-07T13:32:13.316Z,8.25
2019-05-07T13:34:42.968Z,8.95
2019-05-07T13:37:17.274Z,9.23
2019-05-07T13:39:54.396Z,10.23
2019-05-07T13:42:41.953Z,9.63
2019-05-07T13:45:31.790Z,10.93
2019-05-07T13:48:05.341Z,10.53
2019-05-07T13:50:34.792Z,10.25
2019-05-07T13:53:04.358Z,16.27
2019-05-07T13:55:33.734Z,23.62
2019-05-07T13:58:03.257Z,14.80
2019-05-07T14:00:34.371Z,20.92
2019-05-07T14:03:04.115Z,10.65
2019-05-07T14:05:33.717Z,9.30
2019-05-07T14:08:04.625Z,8.88
2019-05-07T14:10:34.260Z,8.60
2019-05-07T14:13:11.184Z,9.38
2019-05-07T14:15:35.900Z,8.28
2019-05-07T14:18:05.960Z,7.65
2019-05-07T14:20:36.592Z,7.60
2019-05-07T14:23:06.421Z,7.90
2019-05-07T14:25:36.360Z,7.55
2019-05-07T14:28:06.118Z,7.90
2019-05-07T14:30:35.893Z,7.42
2019-05-07T14:33:12.309Z,9.93
2019-05-07T14:35:46.394Z,11.68
2019-05-07T14:38:26.930Z,11.00
2019-05-07T14:40:56.497Z,11.03
2019-05-07T14:43:36.457Z,10.55
2019-05-07T14:46:06.417Z,9.95
2019-05-07T14:48:36.429Z,8.53
2019-05-07T14:51:06.164Z,9.35
2019-05-07T14:53:35.637Z,9.10
2019-05-07T14:56:05.013Z,9.15
2019-05-07T14:58:34.808Z,9.15
2019-05-07T15:01:04.221Z,10.53
2019-05-07T15:03:34.117Z,10.38
2019-05-07T15:06:03.843Z,13.38
2019-05-07T15:08:34.855Z,12.60
2019-05-07T15:11:04.865Z,11.55
2019-05-07T15:13:34.691Z,12.03
2019-05-07T15:16:04.637Z,11.22
2019-05-07T15:18:52.949Z,11.83
2019-05-07T15:21:22.444Z,12.50
2019-05-07T15:23:52.959Z,11.90
2019-05-07T15:26:23.211Z,11.33
2019-05-07T15:29:00.598Z,10.98
2019-05-07T15:31:35.293Z,12.18
2019-05-07T15:34:05.063Z,12.00
2019-05-07T15:36:34.613Z,11.75
2019-05-07T15:39:05.270Z,10.00
2019-05-07T15:41:36.488Z,8.60
2019-05-07T15:44:06.355Z,7.87
2019-05-07T15:46:36.362Z,9.03
2019-05-07T15:49:06.602Z,9.65
2019-05-07T15:51:36.315Z,8.88
2019-05-07T15:54:06.230Z,7.83
2019-05-07T15:56:36.357Z,8.33
2019-05-07T15:59:06.145Z,7.62
2019-05-07T16:01:37.127Z,8.48
2019-05-07T16:04:25.541Z,7.65
2019-05-07T16:06:52.781Z,8.20
2019-05-07T16:09:22.469Z,8.03
2019-05-07T16:11:52.225Z,8.18
2019-05-07T16:14:26.718Z,8.30
2019-05-07T16:16:58.273Z,8.28
2019-05-07T16:19:28.704Z,8.80
2019-05-07T16:22:03.629Z,8.65
2019-05-07T16:24:31.913Z,8.40
2019-05-07T16:27:02.616Z,9.60
2019-05-07T16:29:35.687Z,8.98
2019-05-07T16:32:04.874Z,10.13
2019-05-07T16:34:35.711Z,10.40
2019-05-07T16:37:07.489Z,10.75
2019-05-07T16:39:36.965Z,11.20
2019-05-07T16:42:06.438Z,11.05
2019-05-07T16:44:37.113Z,10.03
2019-05-07T16:47:06.685Z,10.95
2019-05-07T16:49:36.407Z,11.78
2019-05-07T16:52:06.220Z,15.80
2019-05-07T16:54:36.128Z,14.65
2019-05-07T16:57:24.036Z,12.43
2019-05-07T16:59:53.687Z,11.88
2019-05-07T17:02:41.704Z,12.70
2019-05-07T17:05:14.026Z,11.30
2019-05-07T17:08:04.015Z,11.40
2019-05-07T17:10:33.658Z,11.30
2019-05-07T17:13:03.479Z,11.73
2019-05-07T17:15:35.923Z,12.90
2019-05-07T17:18:05.804Z,10.70
2019-05-07T17:20:35.461Z,12.63
2019-05-07T17:23:05.244Z,11.57
2019-05-07T17:25:37.988Z,11.28
2019-05-07T17:28:08.407Z,11.03
2019-05-07T17:30:38.686Z,12.63
2019-05-07T17:33:08.356Z,12.60
2019-05-07T17:35:39.350Z,13.88
2019-05-07T17:38:10.057Z,13.28
2019-05-07T17:40:42.356Z,13.95
2019-05-07T17:43:12.396Z,14.35
2019-05-07T17:45:42.929Z,13.25
2019-05-07T17:48:13.805Z,12.90
2019-05-07T17:50:51.924Z,12.70
2019-05-07T17:53:22.514Z,13.10
2019-05-07T17:55:52.928Z,14.68
2019-05-07T17:58:23.280Z,12.75
2019-05-07T18:01:02.279Z,13.43
2019-05-07T18:03:36.995Z,14.95
2019-05-07T18:06:06.794Z,15.28
2019-05-07T18:08:36.484Z,14.50
2019-05-07T18:11:17.379Z,15.55
2019-05-07T18:13:38.930Z,16.70
2019-05-07T18:16:15.935Z,16.77
2019-05-07T18:18:45.427Z,17.00
2019-05-07T18:21:15.230Z,16.25
2019-05-07T18:23:45.053Z,15.58
2019-05-07T18:26:27.331Z,19.30
2019-05-07T18:28:46.218Z,21.27
2019-05-07T18:31:15.985Z,30.40
2019-05-07T18:33:47.625Z,22.13
2019-05-07T18:36:17.339Z,18.32
2019-05-07T18:38:46.926Z,17.87
2019-05-07T18:41:16.583Z,22.70
2019-05-07T18:43:46.462Z,21.30
2019-05-07T18:46:16.454Z,23.98
2019-05-07T18:48:46.654Z,24.45
2019-05-07T18:51:16.459Z,22.90
2019-05-07T18:53:46.608Z,27.52
2019-05-07T18:56:16.115Z,27.77
2019-05-07T18:58:46.161Z,30.68
2019-05-07T19:01:17.180Z,38.70
2019-05-07T19:03:47.041Z,44.15
2019-05-07T19:06:17.570Z,39.75
2019-05-07T19:08:47.839Z,34.75
2019-05-07T19:11:17.345Z,71.80
2019-05-07T19:13:47.193Z,47.48
2019-05-07T19:16:16.836Z,27.00
2019-05-07T19:18:47.089Z,20.02
2019-05-07T19:21:19.485Z,23.42
2019-05-07T19:23:49.428Z,21.00
2019-05-07T19:26:19.023Z,23.02
2019-05-07T19:28:48.641Z,19.82
2019-05-07T19:31:18.657Z,23.90
2019-05-07T19:33:48.406Z,21.62
2019-05-07T19:36:18.625Z,19.65
2019-05-07T19:38:48.297Z,20.17
2019-05-07T19:41:17.994Z,20.00
2019-05-07T19:43:49.259Z,21.48
2019-05-07T19:46:18.895Z,20.55
2019-05-07T19:48:48.695Z,18.12
2019-05-07T19:51:18.447Z,19.12
2019-05-07T19:53:48.067Z,19.75
2019-05-07T19:56:24.807Z,21.40
2019-05-07T19:58:54.292Z,22.58
2019-05-07T20:01:25.361Z,22.50
2019-05-07T20:03:54.935Z,22.73
2019-05-07T20:06:24.572Z,24.90
2019-05-07T20:08:54.092Z,36.28
2019-05-07T20:11:43.641Z,43.83
2019-05-07T20:14:13.152Z,27.87
2019-05-07T20:16:42.685Z,26.17
2019-05-07T20:19:12.275Z,27.60
2019-05-07T20:21:41.873Z,28.83
2019-05-07T20:24:12.495Z,32.30
2019-05-07T20:26:43.298Z,42.93
2019-05-07T20:29:14.187Z,35.98
2019-05-07T20:31:43.916Z,27.27
2019-05-07T20:34:13.556Z,30.50
2019-05-07T20:36:43.050Z,30.52
2019-05-07T20:39:13.012Z,24.47
2019-05-07T20:41:43.064Z,26.42
2019-05-07T20:44:12.896Z,25.92
2019-05-07T20:46:42.495Z,27.73
2019-05-07T20:49:13.088Z,30.65
2019-05-07T20:51:43.855Z,35.52
2019-05-07T20:54:32.306Z,37.03
2019-05-07T20:57:08.736Z,36.10
2019-05-07T20:59:38.333Z,33.95
2019-05-07T21:02:07.950Z,25.72
2019-05-07T21:04:37.798Z,26.35
2019-05-07T21:07:07.425Z,29.23
2019-05-07T21:09:37.010Z,29.77
2019-05-07T21:12:06.564Z,32.42
2019-05-07T21:14:36.531Z,29.57
2019-05-07T21:17:06.020Z,28.73
2019-05-07T21:19:36.052Z,28.98
2019-05-07T21:22:06.144Z,28.73
2019-05-07T21:24:35.825Z,29.60
2019-05-07T21:27:05.457Z,29.90
2019-05-07T21:29:35.172Z,29.00
2019-05-07T21:32:05.047Z,30.08
2019-05-07T21:34:34.722Z,28.38
2019-05-07T21:37:04.360Z,29.50
2019-05-07T21:39:33.870Z,30.48
2019-05-07T21:42:03.851Z,30.25
2019-05-07T21:44:34.644Z,33.50
2019-05-07T21:47:05.157Z,29.75
2019-05-07T21:49:34.855Z,31.90
2019-05-07T21:52:04.765Z,32.73
2019-05-07T21:54:35.923Z,35.15
2019-05-07T21:57:07.156Z,31.12
2019-05-07T21:59:38.625Z,28.30
2019-05-07T22:02:13.016Z,30.70
2019-05-07T22:04:43.061Z,30.27
2019-05-07T22:07:12.870Z,29.18
2019-05-07T22:09:42.716Z,30.25
2019-05-07T22:12:12.435Z,30.57
2019-05-07T22:14:43.570Z,32.50
2019-05-07T22:17:13.412Z,30.35
2019-05-07T22:19:44.332Z,31.17
2019-05-07T22:22:14.532Z,31.42
2019-05-07T22:24:49.348Z,32.13
2019-05-07T22:27:17.716Z,34.67
2019-05-07T22:29:47.450Z,34.10
2019-05-07T22:32:34.996Z,35.73
2019-05-07T22:35:17.740Z,35.88
2019-05-07T22:37:48.726Z,36.03
2019-05-07T22:40:22.966Z,35.38
2019-05-07T22:42:54.205Z,34.38
2019-05-07T22:45:23.794Z,36.65
2019-05-07T22:47:53.516Z,39.60
2019-05-07T22:50:23.120Z,41.70
2019-05-07T22:52:54.414Z,40.45
2019-05-07T22:55:23.794Z,36.85
2019-05-07T22:58:00.692Z,33.28
2019-05-07T23:00:42.696Z,30.92
2019-05-07T23:03:13.282Z,31.30
2019-05-07T23:05:44.842Z,31.70
2019-05-07T23:08:15.186Z,31.37
2019-05-07T23:10:44.803Z,33.83
2019-05-07T23:13:14.876Z,36.93
2019-05-07T23:15:44.588Z,37.55
2019-05-07T23:18:14.312Z,35.58
2019-05-07T23:20:43.940Z,36.35
2019-05-07T23:23:14.702Z,37.17
2019-05-07T23:25:44.476Z,36.58
2019-05-07T23:28:14.470Z,37.13
2019-05-07T23:30:44.407Z,34.23
2019-05-07T23:33:14.216Z,35.78
2019-05-07T23:35:43.791Z,38.78
2019-05-07T23:38:15.897Z,36.35
2019-05-07T23:41:02.132Z,34.92
2019-05-07T23:43:32.829Z,35.45
2019-05-07T23:46:02.309Z,37.15
2019-05-07T23:48:32.321Z,37.15
2019-05-07T23:51:02.301Z,41.02
2019-05-07T23:53:32.992Z,39.85
2019-05-07T23:56:02.881Z,41.95
2019-05-07T23:58:32.753Z,39.48
